Time;durP1;ratioP1;P1;durP2;ratioP2;P2;SDS_P1;SDS_P2;PMS_P1;PMS_P2;Temp;Humidity;BMP_temperature;BMP_pressure;BME280_temperature;BME280_humidity;BME280_pressure;Samples;Min_cycle;Max_cycle;Signal;HPM_P1;HPM_P2
2023/08/13 00:02:22;;;;;;;4.00;1.00;;;;;;;21.29;63.36;100364.13;108726;1272;22517;-79
2023/08/13 00:04:56;;;;;;;5.70;1.10;;;;;;;21.27;63.44;100364.38;108741;1269;24181;-79
2023/08/13 00:07:27;;;;;;;4.80;1.10;;;;;;;21.25;63.56;100363.60;108679;1276;22545;-79
2023/08/13 00:09:57;;;;;;;4.60;1.10;;;;;;;21.23;63.60;100369.27;108657;1275;22618;-79
2023/08/13 00:12:28;;;;;;;5.50;1.20;;;;;;;21.21;63.74;100371.16;108685;1276;25602;-79
2023/08/13 00:15:01;;;;;;;6.10;1.10;;;;;;;21.20;64.05;100375.54;108673;1276;25297;-79
2023/08/13 00:17:32;;;;;;;9.00;1.40;;;;;;;21.16;64.17;100379.70;108654;1275;25293;-79
2023/08/13 00:20:03;;;;;;;6.40;1.00;;;;;;;21.12;64.24;100379.08;108644;1276;22544;-79
2023/08/13 00:22:34;;;;;;;5.70;1.40;;;;;;;21.10;64.52;100374.98;108660;1276;22547;-79
2023/08/13 00:25:05;;;;;;;4.60;1.10;;;;;;;21.08;64.71;100375.95;108676;1276;24207;-79
2023/08/13 00:27:36;;;;;;;7.20;1.40;;;;;;;21.05;64.77;100378.85;108667;1276;22536;-79
2023/08/13 00:30:09;;;;;;;7.10;1.30;;;;;;;21.04;64.72;100382.58;108683;1275;24254;-79
2023/08/13 00:32:40;;;;;;;6.50;1.30;;;;;;;21.03;65.03;100380.17;108840;1272;22647;-79
2023/08/13 00:35:12;;;;;;;6.00;1.10;;;;;;;21.01;65.18;100384.23;108756;1257;22539;-79
2023/08/13 00:37:43;;;;;;;6.40;1.20;;;;;;;20.99;65.17;100380.40;108651;1276;25409;-79
2023/08/13 00:40:14;;;;;;;5.50;1.30;;;;;;;20.98;65.46;100379.23;108635;1276;22535;-79
2023/08/13 00:42:45;;;;;;;7.10;1.20;;;;;;;20.98;65.41;100375.58;108655;1276;23284;-77
2023/08/13 00:45:16;;;;;;;6.90;1.40;;;;;;;20.97;65.66;100376.77;107986;1272;22538;-77
2023/08/13 00:47:47;;;;;;;6.60;1.30;;;;;;;20.95;65.76;100375.01;107926;1269;22820;-77
2023/08/13 00:50:19;;;;;;;9.00;2.10;;;;;;;20.93;65.80;100368.86;108056;1276;22525;-77
2023/08/13 00:52:49;;;;;;;7.30;1.80;;;;;;;20.91;65.83;100376.94;108091;1276;22591;-77
2023/08/13 00:55:21;;;;;;;7.80;1.70;;;;;;;20.88;65.68;100376.23;107987;1276;22480;-77
2023/08/13 00:57:52;;;;;;;6.80;2.00;;;;;;;20.87;65.80;100376.11;107956;1276;22520;-77
2023/08/13 01:00:23;;;;;;;12.50;2.60;;;;;;;20.85;65.82;100373.86;108036;1276;22508;-77
2023/08/13 01:02:54;;;;;;;5.90;1.30;;;;;;;20.84;65.88;100372.55;108042;1276;22563;-77
2023/08/13 01:05:37;;;;;;;6.90;1.70;;;;;;;20.83;65.86;100371.14;108004;1276;22567;-77
2023/08/13 01:08:16;;;;;;;8.90;1.60;;;;;;;20.82;66.00;100372.77;108081;1275;22519;-77
2023/08/13 01:10:53;;;;;;;6.90;1.70;;;;;;;20.80;66.11;100369.70;110442;1276;22503;-77
2023/08/13 01:13:30;;;;;;;7.60;1.30;;;;;;;20.78;66.11;100368.80;110437;1276;22328;-78
2023/08/13 01:16:03;;;;;;;3.90;1.10;;;;;;;20.75;66.46;100376.19;110426;1276;22896;-77
2023/08/13 01:18:35;;;;;;;6.50;1.10;;;;;;;20.73;66.45;100377.67;110447;1276;22141;-77
2023/08/13 01:21:07;;;;;;;6.70;1.20;;;;;;;20.72;66.62;100379.85;110421;1276;22281;-78
2023/08/13 01:23:37;;;;;;;4.90;1.00;;;;;;;20.72;66.47;100378.02;110443;1269;22142;-77
2023/08/13 01:26:17;;;;;;;4.50;1.10;;;;;;;20.73;66.68;100377.63;110422;1276;22178;-78
2023/08/13 01:28:52;;;;;;;;;;;;;;;20.73;66.82;100379.60;110472;1269;22339;-77
2023/08/13 01:31:30;;;;;;;4.10;0.80;;;;;;;20.73;66.88;100381.98;110429;1272;23013;-77
2023/08/13 01:34:02;;;;;;;4.60;1.40;;;;;;;20.72;67.01;100378.21;110414;1272;22180;-77
2023/08/13 01:36:33;;;;;;;6.30;1.40;;;;;;;20.69;67.13;100380.86;110462;1270;22195;-77
2023/08/13 01:39:05;;;;;;;4.40;1.00;;;;;;;20.66;67.12;100384.16;110434;1275;22300;-80
2023/08/13 01:41:51;;;;;;;7.30;1.20;;;;;;;20.67;67.26;100384.31;110442;1276;22452;-79
2023/08/13 01:44:22;;;;;;;4.70;1.30;;;;;;;20.65;67.34;100388.07;110349;1272;22123;-79
2023/08/13 01:46:52;;;;;;;6.80;1.10;;;;;;;20.64;67.31;100387.05;110421;1270;22396;-79
2023/08/13 01:49:23;;;;;;;6.10;1.20;;;;;;;20.65;67.55;100386.52;110409;1275;22875;-80
2023/08/13 01:51:54;;;;;;;8.30;1.50;;;;;;;20.65;67.61;100386.26;110399;1269;22171;-79
2023/08/13 01:54:24;;;;;;;5.90;1.10;;;;;;;20.65;67.42;100385.39;110487;1275;22125;-79
2023/08/13 01:56:55;;;;;;;9.60;1.40;;;;;;;20.65;67.48;100386.86;110466;1275;22174;-79
2023/08/13 01:59:26;;;;;;;8.30;1.40;;;;;;;20.65;67.59;100383.98;110450;1276;23035;-79
2023/08/13 02:01:57;;;;;;;7.30;1.40;;;;;;;20.65;67.77;100381.56;110454;1264;22198;-79
2023/08/13 02:04:27;;;;;;;5.30;1.20;;;;;;;20.65;68.13;100385.67;110468;1275;22271;-79
2023/08/13 02:06:58;;;;;;;6.00;1.40;;;;;;;20.64;67.99;100389.36;110426;1276;22388;-79
2023/08/13 02:09:28;;;;;;;5.80;1.20;;;;;;;20.63;68.37;100391.98;110421;1275;23301;-79
2023/08/13 02:11:59;;;;;;;6.70;1.10;;;;;;;20.62;68.22;100390.75;110417;1275;22180;-79
2023/08/13 02:14:30;;;;;;;11.90;1.70;;;;;;;20.62;68.38;100392.98;110452;1276;22166;-79
2023/08/13 02:17:01;;;;;;;9.20;1.30;;;;;;;20.60;68.67;100391.25;110442;1269;22326;-79
2023/08/13 02:19:32;;;;;;;9.80;1.60;;;;;;;20.59;68.84;100399.52;110427;1272;22896;-79
2023/08/13 02:22:03;;;;;;;6.90;1.30;;;;;;;20.56;69.05;100399.88;110447;1269;22186;-79
2023/08/13 02:24:33;;;;;;;9.40;1.60;;;;;;;20.54;69.29;100405.61;110448;1269;22185;-79
2023/08/13 02:27:04;;;;;;;6.70;1.30;;;;;;;20.51;69.44;100405.04;110429;1275;22196;-79
2023/08/13 02:29:35;;;;;;;9.40;1.60;;;;;;;20.49;69.50;100403.17;110424;1264;22205;-79
2023/08/13 02:32:07;;;;;;;4.90;1.30;;;;;;;20.46;69.26;100398.95;110439;1275;22188;-79
2023/08/13 02:34:45;;;;;;;10.10;1.40;;;;;;;20.43;69.38;100399.61;106320;1276;5393617;-79
2023/08/13 02:37:16;;;;;;;9.20;1.40;;;;;;;20.40;69.49;100403.84;110405;1269;22268;-79
2023/08/13 02:39:47;;;;;;;6.60;1.30;;;;;;;20.39;69.61;100411.30;110404;1272;22393;-79
2023/08/13 02:42:17;;;;;;;6.30;1.30;;;;;;;20.36;69.76;100414.09;110442;1275;22252;-79
2023/08/13 02:44:48;;;;;;;9.10;1.20;;;;;;;20.33;69.71;100412.28;110411;1276;22283;-79
2023/08/13 02:47:18;;;;;;;8.60;1.30;;;;;;;20.31;69.80;100410.04;110457;1269;22215;-79
2023/08/13 02:49:49;;;;;;;4.20;1.20;;;;;;;20.29;69.91;100413.76;110413;1276;22160;-79
2023/08/13 02:52:21;;;;;;;9.80;1.60;;;;;;;20.26;70.21;100418.39;110465;1276;22175;-79
2023/08/13 02:54:51;;;;;;;9.00;1.90;;;;;;;20.23;70.20;100423.22;110429;1276;22499;-79
2023/08/13 02:57:22;;;;;;;10.90;2.20;;;;;;;20.21;70.34;100421.98;110454;1276;22206;-80
2023/08/13 02:59:54;;;;;;;14.20;3.20;;;;;;;20.18;70.48;100422.41;110466;1269;22435;-79
2023/08/13 03:02:25;;;;;;;11.20;2.60;;;;;;;20.14;70.67;100420.55;110430;1270;22204;-79
2023/08/13 03:04:55;;;;;;;9.50;3.10;;;;;;;20.11;70.63;100411.63;110435;1276;22369;-79
2023/08/13 03:07:26;;;;;;;10.90;3.90;;;;;;;20.08;70.76;100416.86;110410;1272;22254;-79
2023/08/13 03:09:57;;;;;;;12.50;3.50;;;;;;;20.05;70.90;100418.05;110448;1272;22343;-79
2023/08/13 03:12:27;;;;;;;11.90;3.70;;;;;;;20.01;71.06;100417.70;110475;1272;22221;-79
2023/08/13 03:14:58;;;;;;;11.60;2.80;;;;;;;20.00;71.04;100421.02;110431;1276;22850;-79
2023/08/13 03:17:29;;;;;;;13.40;2.70;;;;;;;19.97;71.32;100419.46;110458;1276;23183;-79
2023/08/13 03:19:59;;;;;;;10.80;2.20;;;;;;;19.93;71.39;100425.86;110433;1265;22392;-80
2023/08/13 03:22:30;;;;;;;10.30;2.00;;;;;;;19.88;71.60;100426.88;110435;1276;22143;-80
2023/08/13 03:25:01;;;;;;;6.10;1.80;;;;;;;19.86;71.57;100425.56;110449;1265;22336;-80
2023/08/13 03:27:32;;;;;;;10.20;1.80;;;;;;;19.85;71.70;100427.59;110412;1272;22422;-79
2023/08/13 03:30:03;;;;;;;9.30;1.70;;;;;;;19.84;71.91;100433.53;110429;1276;22222;-80
2023/08/13 03:32:34;;;;;;;10.70;1.80;;;;;;;19.81;71.87;100434.86;110406;1272;22144;-79
2023/08/13 03:35:06;;;;;;;7.80;1.80;;;;;;;19.81;71.91;100435.44;110486;1272;22253;-79
2023/08/13 03:37:37;;;;;;;7.60;1.80;;;;;;;19.81;71.97;100440.44;110514;1276;22255;-80
2023/08/13 03:40:10;;;;;;;9.90;1.80;;;;;;;19.81;72.09;100443.02;110419;1276;22272;-80
2023/08/13 03:42:41;;;;;;;6.90;1.70;;;;;;;19.80;72.30;100442.45;110444;1276;23061;-79
2023/08/13 03:45:12;;;;;;;11.00;1.70;;;;;;;19.78;72.53;100445.83;110435;1276;22224;-80
2023/08/13 03:47:43;;;;;;;8.20;1.50;;;;;;;19.76;72.51;100442.20;110426;1275;22578;-79
2023/08/13 03:50:13;;;;;;;5.20;1.50;;;;;;;19.76;72.50;100442.77;110396;1276;22271;-80
2023/08/13 03:52:44;;;;;;;10.00;1.60;;;;;;;19.77;72.71;100442.10;110396;1276;22153;-80
2023/08/13 03:55:15;;;;;;;6.50;1.50;;;;;;;19.75;72.93;100443.66;110408;1276;22245;-79
2023/08/13 03:57:45;;;;;;;6.60;1.80;;;;;;;19.74;73.06;100448.43;110451;1276;22189;-80
2023/08/13 04:00:17;;;;;;;10.40;1.60;;;;;;;19.73;73.39;100446.64;110411;1276;22205;-80
2023/08/13 04:02:50;;;;;;;10.30;1.90;;;;;;;19.72;73.65;100443.14;110447;1276;22340;-80
2023/08/13 04:05:20;;;;;;;6.30;1.70;;;;;;;19.72;73.86;100439.56;110468;1276;23324;-80
2023/08/13 04:07:51;;;;;;;12.30;2.00;;;;;;;19.71;73.96;100442.08;110418;1272;22322;-80
2023/08/13 04:10:22;;;;;;;7.30;1.50;;;;;;;19.72;74.02;100437.45;110405;1276;22171;-80
2023/08/13 04:12:53;;;;;;;5.50;1.50;;;;;;;19.73;74.10;100436.55;110449;1268;23790;-80
2023/08/13 04:15:23;;;;;;;8.50;1.70;;;;;;;19.75;74.06;100442.17;110444;1270;22145;-80
2023/08/13 04:17:54;;;;;;;8.50;1.60;;;;;;;19.77;74.26;100440.14;110450;1270;22390;-80
2023/08/13 04:20:25;;;;;;;7.40;1.60;;;;;;;19.80;74.33;100435.52;110435;1276;22204;-80
2023/08/13 04:22:55;;;;;;;8.20;1.90;;;;;;;19.82;74.48;100432.33;110479;1268;22458;-80
2023/08/13 04:25:26;;;;;;;4.50;1.20;;;;;;;19.84;74.68;100435.02;110461;1276;22217;-80
2023/08/13 04:27:57;;;;;;;5.60;1.40;;;;;;;19.88;74.72;100436.83;110422;1270;22284;-79
2023/08/13 04:30:28;;;;;;;7.10;1.60;;;;;;;19.92;74.72;100437.02;110396;1276;22294;-80
2023/08/13 04:32:58;;;;;;;5.00;1.40;;;;;;;19.97;74.75;100434.05;110479;1270;22190;-80
2023/08/13 04:35:29;;;;;;;6.70;1.30;;;;;;;20.01;75.00;100438.36;110448;1272;22237;-80
2023/08/13 04:38:00;;;;;;;6.60;1.50;;;;;;;20.06;74.96;100439.47;110432;1272;22161;-80
2023/08/13 04:40:31;;;;;;;6.80;1.20;;;;;;;20.11;75.11;100442.02;110432;1269;22112;-79
2023/08/13 04:43:01;;;;;;;7.10;1.30;;;;;;;20.19;75.32;100439.42;110457;1276;23221;-81
2023/08/13 04:45:32;;;;;;;6.50;1.60;;;;;;;20.26;75.65;100447.57;110428;1276;23308;-79
2023/08/13 04:48:03;;;;;;;7.20;1.60;;;;;;;20.32;75.79;100450.40;110419;1276;22332;-81
2023/08/13 04:50:33;;;;;;;9.90;1.20;;;;;;;20.38;75.93;100448.99;110446;1269;22226;-82
2023/08/13 04:53:05;;;;;;;4.90;1.40;;;;;;;20.46;76.20;100450.44;110466;1269;22145;-82
2023/08/13 04:55:35;;;;;;;3.60;1.10;;;;;;;20.54;76.42;100452.38;110432;1276;22398;-82
2023/08/13 04:58:06;;;;;;;5.70;1.20;;;;;;;20.61;76.63;100454.61;110455;1276;22125;-82
2023/08/13 05:00:37;;;;;;;6.90;1.40;;;;;;;20.68;76.43;100453.71;110418;1272;22330;-82
2023/08/13 05:03:08;;;;;;;4.10;1.10;;;;;;;20.75;76.51;100453.63;110441;1270;22202;-82
2023/08/13 05:05:39;;;;;;;6.80;1.30;;;;;;;20.82;76.63;100455.40;110429;1276;22190;-82
2023/08/13 05:08:09;;;;;;;8.30;1.20;;;;;;;20.88;76.46;100455.23;110410;1276;22189;-82
2023/08/13 05:10:40;;;;;;;4.30;1.20;;;;;;;20.96;76.61;100459.61;110435;1276;22189;-82
2023/08/13 05:13:12;;;;;;;5.30;1.00;;;;;;;21.04;76.75;100461.14;110458;1268;22204;-82
2023/08/13 05:15:43;;;;;;;5.10;1.00;;;;;;;21.11;76.60;100464.77;110442;1275;22214;-82
2023/08/13 05:18:13;;;;;;;5.00;1.00;;;;;;;21.17;76.79;100470.11;110458;1272;22217;-82
2023/08/13 05:20:44;;;;;;;4.40;0.90;;;;;;;21.23;76.67;100474.32;110442;1269;22220;-82
2023/08/13 05:23:15;;;;;;;5.20;0.90;;;;;;;21.29;76.67;100475.79;110450;1273;22265;-82
2023/08/13 05:25:45;;;;;;;5.50;1.10;;;;;;;21.36;76.56;100475.54;110481;1271;22163;-82
2023/08/13 05:28:16;;;;;;;3.90;1.00;;;;;;;21.42;76.58;100479.03;110426;1269;22302;-81
2023/08/13 05:30:47;;;;;;;4.00;0.80;;;;;;;21.49;76.42;100477.79;110378;1273;22282;-81
2023/08/13 05:33:18;;;;;;;3.10;0.90;;;;;;;21.56;76.13;100481.05;110441;1275;22381;-81
2023/08/13 05:35:48;;;;;;;6.60;1.30;;;;;;;21.61;76.05;100485.93;110438;1276;22225;-82
2023/08/13 05:38:20;;;;;;;4.60;1.10;;;;;;;21.67;76.10;100489.48;110459;1275;22235;-82
2023/08/13 05:40:51;;;;;;;5.20;1.20;;;;;;;21.72;75.98;100491.75;110405;1272;22155;-82
2023/08/13 05:43:21;;;;;;;6.30;1.10;;;;;;;21.76;75.93;100493.45;110430;1276;22242;-82
2023/08/13 05:45:52;;;;;;;6.80;1.00;;;;;;;21.81;76.02;100497.39;110440;1276;22326;-82
2023/08/13 05:48:23;;;;;;;4.10;1.00;;;;;;;21.84;75.67;100496.86;110429;1276;22218;-83
2023/08/13 05:50:54;;;;;;;7.30;1.10;;;;;;;21.90;75.65;100493.07;110429;1270;22405;-82
2023/08/13 05:53:25;;;;;;;4.60;1.10;;;;;;;21.98;75.59;100493.09;110456;1276;22235;-82
2023/08/13 05:55:59;;;;;;;3.80;0.90;;;;;;;22.08;75.79;100489.55;110424;1276;22285;-82
2023/08/13 05:58:29;;;;;;;6.80;1.20;;;;;;;22.18;75.83;100492.56;110431;1273;22366;-82
2023/08/13 06:01:01;;;;;;;5.10;1.10;;;;;;;22.28;75.62;100493.79;110292;1270;22331;-82
2023/08/13 06:03:32;;;;;;;4.20;0.90;;;;;;;22.36;75.41;100495.27;110427;1269;22231;-82
2023/08/13 06:06:03;;;;;;;6.60;1.10;;;;;;;22.39;75.31;100493.37;110420;1260;22936;-82
2023/08/13 06:08:34;;;;;;;4.10;1.20;;;;;;;22.39;75.06;100497.81;110385;1274;22154;-82
2023/08/13 06:11:05;;;;;;;7.90;1.10;;;;;;;22.36;75.27;100503.02;110394;1275;22311;-81
2023/08/13 06:13:38;;;;;;;4.30;1.00;;;;;;;22.32;75.24;100500.63;110422;1263;22965;-82
2023/08/13 06:16:09;;;;;;;4.60;1.00;;;;;;;22.28;75.31;100499.80;110393;1270;22296;-82
2023/08/13 06:18:40;;;;;;;4.70;1.00;;;;;;;22.25;75.59;100510.06;110371;1271;22905;-82
2023/08/13 06:21:11;;;;;;;3.40;1.00;;;;;;;22.25;75.69;100510.38;110389;1276;22308;-82
2023/08/13 06:23:42;;;;;;;6.00;1.20;;;;;;;22.29;75.87;100511.05;110394;1272;22160;-82
2023/08/13 06:26:12;;;;;;;4.90;1.10;;;;;;;22.35;76.04;100514.38;110423;1275;22366;-82
2023/08/13 06:28:43;;;;;;;4.80;1.10;;;;;;;22.41;75.90;100513.44;110388;1269;22169;-82
2023/08/13 06:31:14;;;;;;;5.80;1.20;;;;;;;22.46;76.16;100509.52;110363;1272;22211;-82
2023/08/13 06:33:45;;;;;;;5.40;1.10;;;;;;;22.53;76.15;100510.89;110431;1269;22164;-82
2023/08/13 06:36:16;;;;;;;4.40;1.20;;;;;;;22.57;75.93;100505.85;110399;1276;22341;-82
2023/08/13 06:38:46;;;;;;;4.50;1.50;;;;;;;22.62;76.07;100505.57;110458;1270;23041;-82
2023/08/13 06:41:17;;;;;;;5.80;1.30;;;;;;;22.67;76.09;100507.16;110380;1269;22189;-81
2023/08/13 06:43:48;;;;;;;6.70;1.20;;;;;;;22.73;76.15;100514.66;110412;1269;23201;-81
2023/08/13 06:46:19;;;;;;;9.00;1.40;;;;;;;22.80;76.02;100509.17;110392;1275;22171;-82
2023/08/13 06:48:51;;;;;;;5.10;1.20;;;;;;;22.85;75.90;100509.92;110417;1275;22381;-81
2023/08/13 06:51:21;;;;;;;3.50;1.10;;;;;;;22.91;76.13;100517.86;110413;1272;23105;-82
2023/08/13 06:53:52;;;;;;;4.70;1.30;;;;;;;22.97;76.07;100521.89;110351;1269;22394;-82
2023/08/13 06:56:23;;;;;;;4.40;1.30;;;;;;;23.04;76.10;100523.20;110338;1268;22349;-82
2023/08/13 06:58:54;;;;;;;4.20;1.00;;;;;;;23.10;76.03;100526.24;110388;1272;22413;-79
2023/08/13 07:01:25;;;;;;;4.10;1.10;;;;;;;23.15;76.02;100528.85;110426;1276;22398;-78
2023/08/13 07:03:55;;;;;;;6.80;1.30;;;;;;;23.19;75.93;100532.91;110422;1276;22314;-78
2023/08/13 07:06:26;;;;;;;6.40;1.30;;;;;;;23.25;75.76;100533.20;110387;1272;22383;-77
2023/08/13 07:08:58;;;;;;;3.50;1.10;;;;;;;23.30;75.65;100530.42;110398;1272;22250;-78
2023/08/13 07:11:29;;;;;;;7.40;1.20;;;;;;;23.35;75.53;100533.20;108551;1275;22464;-78
2023/08/13 07:14:03;;;;;;;7.40;1.40;;;;;;;23.38;75.62;100538.17;108368;1276;23891;-77
2023/08/13 07:16:34;;;;;;;6.10;1.10;;;;;;;23.44;75.77;100542.88;107921;1273;22550;-77
2023/08/13 07:19:06;;;;;;;5.20;1.20;;;;;;;23.48;75.51;100549.55;108026;1276;24228;-78
2023/08/13 07:21:38;;;;;;;3.90;1.00;;;;;;;23.51;75.88;100539.64;108049;1269;22519;-77
2023/08/13 07:24:09;;;;;;;4.90;1.20;;;;;;;23.55;75.65;100540.41;107828;1270;25625;-75
2023/08/13 07:26:40;;;;;;;9.40;1.60;;;;;;;23.60;75.77;100541.92;107956;1270;22479;-78
2023/08/13 07:29:12;;;;;;;6.80;1.20;;;;;;;23.64;75.47;100551.34;107832;1272;22552;-76
2023/08/13 07:31:42;;;;;;;4.80;1.40;;;;;;;23.64;75.59;100555.02;107778;1269;22648;-76
2023/08/13 07:34:14;;;;;;;5.40;1.20;;;;;;;23.60;75.29;100555.04;107769;1276;23963;-78
2023/08/13 07:36:45;;;;;;;4.50;1.00;;;;;;;23.58;75.71;100554.57;107805;1276;25227;-75
2023/08/13 07:39:16;;;;;;;4.80;1.30;;;;;;;23.61;75.55;100556.98;107806;1276;23215;-76
2023/08/13 07:41:49;;;;;;;4.90;1.40;;;;;;;23.64;75.34;100553.84;107890;1273;23225;-79
2023/08/13 07:44:19;;;;;;;4.40;1.40;;;;;;;23.67;75.59;100554.16;110437;1271;22188;-78
2023/08/13 07:46:54;;;;;;;6.20;1.10;;;;;;;23.75;75.88;100555.95;110443;1272;22136;-77
2023/08/13 07:49:25;;;;;;;5.20;1.30;;;;;;;23.84;75.64;100550.27;110368;1276;22215;-79
2023/08/13 07:51:56;;;;;;;6.00;1.10;;;;;;;23.93;75.72;100544.35;110469;1270;22457;-78
2023/08/13 07:54:28;;;;;;;5.10;1.40;;;;;;;24.05;75.65;100546.52;110443;1276;22193;-78
2023/08/13 07:56:59;;;;;;;6.90;1.50;;;;;;;24.16;75.54;100544.17;110393;1276;22234;-79
2023/08/13 07:59:29;;;;;;;7.50;1.20;;;;;;;24.26;74.92;100545.88;110422;1271;22230;-80
2023/08/13 08:02:03;;;;;;;5.20;1.20;;;;;;;24.30;74.41;100545.23;110446;1276;22158;-78
2023/08/13 08:04:33;;;;;;;10.60;1.20;;;;;;;24.33;74.46;100543.71;110462;1276;22412;-78
2023/08/13 08:07:04;;;;;;;5.40;1.10;;;;;;;24.39;74.50;100547.68;110481;1272;22100;-78
2023/08/13 08:09:35;;;;;;;3.90;1.30;;;;;;;24.47;74.34;100551.88;110511;1270;22195;-79
2023/08/13 08:12:06;;;;;;;4.50;1.20;;;;;;;24.53;73.99;100552.03;110484;1276;22978;-80
2023/08/13 08:14:37;;;;;;;5.70;1.20;;;;;;;24.58;73.90;100549.41;110505;1276;22150;-80
2023/08/13 08:17:08;;;;;;;7.00;1.30;;;;;;;24.65;73.67;100549.16;110548;1276;22174;-80
2023/08/13 08:19:39;;;;;;;4.80;1.10;;;;;;;24.69;73.51;100553.30;110434;1276;22321;-80
2023/08/13 08:22:10;;;;;;;6.60;1.40;;;;;;;24.72;73.16;100554.98;110499;1276;22129;-79
2023/08/13 08:24:42;;;;;;;7.20;1.60;;;;;;;24.74;73.05;100553.36;110536;1276;22193;-80
2023/08/13 08:27:13;;;;;;;3.30;1.10;;;;;;;24.75;72.77;100550.78;110529;1276;22631;-80
2023/08/13 08:29:44;;;;;;;7.20;1.40;;;;;;;24.81;72.82;100551.73;110528;1276;22395;-80
2023/08/13 08:32:14;;;;;;;5.10;1.70;;;;;;;24.88;72.94;100548.84;110574;1272;22127;-79
2023/08/13 08:34:45;;;;;;;6.60;1.30;;;;;;;24.98;72.70;100550.63;110480;1276;22322;-82
2023/08/13 08:37:16;;;;;;;4.60;1.10;;;;;;;25.03;72.21;100553.85;110293;1273;22932;-80
2023/08/13 08:39:48;;;;;;;6.40;1.80;;;;;;;25.00;72.11;100553.43;110398;1270;22748;-80
2023/08/13 08:42:20;;;;;;;6.00;1.90;;;;;;;24.97;71.79;100552.74;110422;1273;22194;-80
2023/08/13 08:44:51;;;;;;;4.20;1.10;;;;;;;24.97;71.80;100549.85;110391;1270;22317;-81
2023/08/13 08:47:24;;;;;;;4.10;1.30;;;;;;;24.97;71.34;100544.52;110400;1276;22320;-81
2023/08/13 08:49:56;;;;;;;4.40;1.30;;;;;;;25.04;72.08;100542.77;110386;1276;22798;-80
2023/08/13 08:52:27;;;;;;;5.10;1.00;;;;;;;25.16;71.72;100542.67;110436;1276;22889;-80
2023/08/13 08:55:00;;;;;;;3.20;0.90;;;;;;;25.20;70.76;100543.81;110430;1270;22263;-81
2023/08/13 08:57:31;;;;;;;2.40;0.80;;;;;;;25.17;70.64;100539.96;110463;1276;22387;-81
2023/08/13 09:00:02;;;;;;;10.30;1.40;;;;;;;25.18;70.37;100535.31;110375;1276;22346;-80
2023/08/13 09:02:33;;;;;;;9.50;0.90;;;;;;;25.22;70.48;100537.29;110416;1276;22655;-82
2023/08/13 09:05:06;;;;;;;4.20;0.80;;;;;;;25.30;70.35;100540.43;110377;1269;22616;-80
2023/08/13 09:07:40;;;;;;;4.00;0.90;;;;;;;25.40;70.32;100539.51;110404;1276;22373;-82
2023/08/13 09:10:12;;;;;;;3.70;1.30;;;;;;;25.45;69.50;100537.30;110348;1276;22296;-83
2023/08/13 09:12:44;;;;;;;3.50;1.00;;;;;;;25.50;69.87;100534.88;110388;1271;22214;-83
2023/08/13 09:15:15;;;;;;;4.20;0.80;;;;;;;25.59;69.43;100531.72;110315;1273;22303;-83
2023/08/13 09:17:46;;;;;;;5.30;0.90;;;;;;;25.65;69.33;100528.11;110373;1276;22400;-83
2023/08/13 09:20:21;;;;;;;3.70;0.80;;;;;;;25.68;68.56;100529.33;110402;1276;23682;-83
2023/08/13 09:22:52;;;;;;;2.30;0.80;;;;;;;25.59;68.10;100530.96;110359;1272;23008;-82
2023/08/13 09:25:23;;;;;;;6.40;1.20;;;;;;;25.53;68.25;100528.31;110322;1270;22152;-83
2023/08/13 09:27:54;;;;;;;2.90;0.90;;;;;;;25.55;68.21;100528.66;110361;1269;23406;-82
2023/08/13 09:30:30;;;;;;;4.60;1.10;;;;;;;25.59;67.82;100528.25;110401;1270;22166;-83
2023/08/13 09:33:03;;;;;;;4.90;1.20;;;;;;;25.69;68.36;100530.13;110403;1270;23320;-83
2023/08/13 09:35:45;;;;;;;;;;;;;;;;;;;;;
2023/08/13 09:38:15;;;;;;;4.90;0.90;;;;;;;26.02;68.50;100527.21;109763;1271;22379;-83
2023/08/13 09:40:47;;;;;;;2.10;0.70;;;;;;;26.18;68.09;100526.16;109746;1284;22285;-83
2023/08/13 09:43:21;;;;;;;2.30;0.70;;;;;;;26.35;68.01;100525.08;109756;1277;22244;-83
2023/08/13 09:45:55;;;;;;;2.40;0.70;;;;;;;26.47;67.61;100520.84;109718;1276;22216;-83
2023/08/13 09:48:27;;;;;;;5.30;0.90;;;;;;;26.60;66.68;100526.05;109705;1277;22288;-83
2023/08/13 09:51:00;;;;;;;3.50;0.80;;;;;;;26.57;65.93;100523.13;109742;1277;22291;-82
2023/08/13 09:53:32;;;;;;;2.50;0.70;;;;;;;26.51;65.79;100520.73;109730;1284;22206;-84
2023/08/13 09:56:04;;;;;;;2.50;0.60;;;;;;;26.52;65.32;100520.54;109963;1270;22268;-85
2023/08/13 09:58:36;;;;;;;3.20;0.70;;;;;;;26.55;65.42;100516.52;110385;1270;23128;-83
2023/08/13 10:01:07;;;;;;;3.80;0.90;;;;;;;26.61;65.42;100518.33;110392;1270;22398;-83
2023/08/13 10:03:40;;;;;;;3.60;0.70;;;;;;;26.63;65.06;100519.38;110335;1273;22415;-83
2023/08/13 10:06:12;;;;;;;2.70;0.90;;;;;;;26.61;64.84;100518.02;110358;1276;22199;-83
2023/08/13 10:08:44;;;;;;;3.20;0.90;;;;;;;26.59;65.10;100517.55;110428;1274;22214;-83
2023/08/13 10:11:16;;;;;;;2.90;0.80;;;;;;;26.60;65.31;100516.80;110384;1276;22200;-84
2023/08/13 10:13:47;;;;;;;2.90;0.80;;;;;;;26.64;65.06;100514.98;110396;1276;22406;-83
2023/08/13 10:16:18;;;;;;;2.30;0.70;;;;;;;26.67;64.76;100511.33;110340;1269;22328;-83
2023/08/13 10:18:50;;;;;;;2.90;0.60;;;;;;;26.68;64.26;100516.29;110382;1276;22436;-84
2023/08/13 10:21:34;;;;;;;2.50;0.70;;;;;;;26.68;64.35;100518.89;110387;1270;22201;-83
2023/08/13 10:24:13;;;;;;;3.50;0.70;;;;;;;26.71;64.16;100521.46;110359;1276;22526;-84
2023/08/13 10:26:45;;;;;;;3.30;0.80;;;;;;;26.74;64.06;100522.02;110393;1269;22268;-84
2023/08/13 10:29:20;;;;;;;3.90;0.70;;;;;;;26.71;63.73;100522.30;110277;1270;22226;-85
2023/08/13 10:32:00;;;;;;;2.20;0.70;;;;;;;26.64;63.76;100521.58;110454;1266;23123;-85
2023/08/13 10:34:46;;;;;;;2.30;0.70;;;;;;;26.64;63.85;100519.57;110366;1267;22337;-85
2023/08/13 10:37:19;;;;;;;2.90;0.70;;;;;;;26.65;63.37;100518.37;110474;1276;22226;-85
2023/08/13 10:40:06;;;;;;;5.00;0.80;;;;;;;26.66;63.61;100521.03;110561;1273;22191;-85
2023/08/13 10:42:51;;;;;;;2.10;0.70;;;;;;;26.68;63.33;100525.18;110490;1276;23144;-84
2023/08/13 10:45:24;;;;;;;4.90;1.00;;;;;;;26.69;63.24;100528.73;110301;1269;22316;-83
2023/08/13 10:47:57;;;;;;;2.90;0.80;;;;;;;26.71;63.32;100531.31;110226;1269;22227;-84
2023/08/13 10:50:33;;;;;;;5.10;0.80;;;;;;;26.75;63.65;100530.61;110132;1273;22281;-85
2023/08/13 10:53:09;;;;;;;3.40;0.90;;;;;;;26.83;63.05;100533.23;110352;1276;23368;-85
2023/08/13 10:55:43;;;;;;;2.50;0.80;;;;;;;26.86;62.70;100537.49;110164;1269;22339;-83
2023/08/13 10:58:29;;;;;;;3.90;0.70;;;;;;;26.87;62.66;100534.21;110361;1268;22320;-84
2023/08/13 11:01:13;;;;;;;2.10;0.70;;;;;;;26.89;62.28;100531.83;110345;1269;23475;-84
2023/08/13 11:03:47;;;;;;;2.70;0.70;;;;;;;26.94;62.14;100531.36;110315;1269;22451;-83
2023/08/13 11:06:18;;;;;;;3.30;0.80;;;;;;;27.02;62.56;100531.77;110265;1269;23369;-83
2023/08/13 11:08:50;;;;;;;4.60;0.80;;;;;;;27.12;61.75;100526.71;110291;1269;23062;-83
2023/08/13 11:11:21;;;;;;;2.20;0.70;;;;;;;27.17;61.32;100529.30;110376;1269;22175;-84
2023/08/13 11:13:52;;;;;;;1.50;0.60;;;;;;;27.21;61.33;100528.34;110157;1271;22301;-85
2023/08/13 11:16:27;;;;;;;4.80;0.90;;;;;;;27.24;60.87;100529.22;110210;1270;22304;-82
2023/08/13 11:19:03;;;;;;;6.90;0.90;;;;;;;27.22;60.74;100527.33;110231;1270;22346;-86
2023/08/13 11:21:34;;;;;;;3.10;0.80;;;;;;;27.23;60.94;100527.78;110226;1267;22382;-85
2023/08/13 11:24:07;;;;;;;3.20;0.90;;;;;;;27.22;60.99;100527.56;110221;1275;22250;-86
2023/08/13 11:26:38;;;;;;;3.80;0.70;;;;;;;27.24;60.87;100528.73;110264;1277;22167;-87
2023/08/13 11:29:10;;;;;;;3.60;1.00;;;;;;;27.24;60.45;100524.98;110248;1270;22194;-86
2023/08/13 11:31:46;;;;;;;6.20;0.80;;;;;;;27.23;60.63;100516.49;110239;1277;22193;-87
2023/08/13 11:34:18;;;;;;;2.90;0.80;;;;;;;27.25;60.16;100514.50;110252;1277;22174;-85
2023/08/13 11:36:51;;;;;;;3.10;0.80;;;;;;;27.27;60.29;100508.48;110260;1274;22223;-86
2023/08/13 11:39:22;;;;;;;4.10;1.00;;;;;;;27.30;60.36;100507.15;110218;1277;22319;-85